sensor_id;sensor_type;location;lat;lon;timestamp;temperature;humidity
8178;DHT22;4130;48.740;9.132;2023-09-08T00:04:35;15.00;99.90
8178;DHT22;4130;48.740;9.132;2023-09-08T00:07:02;15.00;99.90
8178;DHT22;4130;48.740;9.132;2023-09-08T00:09:29;15.00;99.90
8178;DHT22;4130;48.740;9.132;2023-09-08T00:11:56;15.00;99.90
8178;DHT22;4130;48.740;9.132;2023-09-08T00:14:23;15.00;99.90
8178;DHT22;4130;48.740;9.132;2023-09-08T00:16:51;15.00;99.90
8178;DHT22;4130;48.740;9.132;2023-09-08T00:19:19;14.90;99.90
8178;DHT22;4130;48.740;9.132;2023-09-08T00:21:48;15.00;99.90
8178;DHT22;4130;48.740;9.132;2023-09-08T00:24:15;15.00;99.90
8178;DHT22;4130;48.740;9.132;2023-09-08T00:26:43;15.00;99.90
8178;DHT22;4130;48.740;9.132;2023-09-08T00:29:10;14.90;99.90
8178;DHT22;4130;48.740;9.132;2023-09-08T00:31:37;14.90;99.90
8178;DHT22;4130;48.740;9.132;2023-09-08T00:34:04;14.90;99.90
8178;DHT22;4130;48.740;9.132;2023-09-08T00:36:31;14.80;99.90
8178;DHT22;4130;48.740;9.132;2023-09-08T00:38:59;14.80;99.90
8178;DHT22;4130;48.740;9.132;2023-09-08T00:41:26;14.80;99.90
8178;DHT22;4130;48.740;9.132;2023-09-08T00:43:53;14.80;99.90
8178;DHT22;4130;48.740;9.132;2023-09-08T00:46:20;14.70;99.90
8178;DHT22;4130;48.740;9.132;2023-09-08T00:48:47;14.70;99.90
8178;DHT22;4130;48.740;9.132;2023-09-08T00:51:14;14.70;99.90
8178;DHT22;4130;48.740;9.132;2023-09-08T00:53:41;14.70;99.90
8178;DHT22;4130;48.740;9.132;2023-09-08T00:56:10;14.70;99.90
8178;DHT22;4130;48.740;9.132;2023-09-08T00:58:38;14.70;99.90
8178;DHT22;4130;48.740;9.132;2023-09-08T01:01:05;14.60;99.90
8178;DHT22;4130;48.740;9.132;2023-09-08T01:03:33;14.60;99.90
8178;DHT22;4130;48.740;9.132;2023-09-08T01:06:00;14.70;99.90
8178;DHT22;4130;48.740;9.132;2023-09-08T01:08:27;14.60;99.90
8178;DHT22;4130;48.740;9.132;2023-09-08T01:10:55;14.60;99.90
8178;DHT22;4130;48.740;9.132;2023-09-08T01:13:23;14.60;99.90
8178;DHT22;4130;48.740;9.132;2023-09-08T01:15:51;14.60;99.90
8178;DHT22;4130;48.740;9.132;2023-09-08T01:18:18;14.50;99.90
8178;DHT22;4130;48.740;9.132;2023-09-08T01:21:12;14.50;99.90
8178;DHT22;4130;48.740;9.132;2023-09-08T01:23:55;14.50;99.90
8178;DHT22;4130;48.740;9.132;2023-09-08T01:26:27;14.50;99.90
8178;DHT22;4130;48.740;9.132;2023-09-08T01:28:56;14.50;99.90
8178;DHT22;4130;48.740;9.132;2023-09-08T01:31:23;14.50;99.90
8178;DHT22;4130;48.740;9.132;2023-09-08T01:33:51;14.50;99.90
8178;DHT22;4130;48.740;9.132;2023-09-08T01:36:18;14.50;99.90
8178;DHT22;4130;48.740;9.132;2023-09-08T01:38:45;14.40;99.90
8178;DHT22;4130;48.740;9.132;2023-09-08T01:41:12;14.40;99.90
8178;DHT22;4130;48.740;9.132;2023-09-08T01:43:40;14.40;99.90
8178;DHT22;4130;48.740;9.132;2023-09-08T01:46:07;14.30;99.90
8178;DHT22;4130;48.740;9.132;2023-09-08T01:48:34;14.30;99.90
8178;DHT22;4130;48.740;9.132;2023-09-08T01:51:01;14.30;99.90
8178;DHT22;4130;48.740;9.132;2023-09-08T01:53:28;14.30;99.90
8178;DHT22;4130;48.740;9.132;2023-09-08T01:55:54;14.30;99.90
8178;DHT22;4130;48.740;9.132;2023-09-08T01:58:22;14.30;99.90
8178;DHT22;4130;48.740;9.132;2023-09-08T02:00:51;14.30;99.90
8178;DHT22;4130;48.740;9.132;2023-09-08T02:03:18;14.20;99.90
8178;DHT22;4130;48.740;9.132;2023-09-08T02:05:45;14.20;99.90
8178;DHT22;4130;48.740;9.132;2023-09-08T02:08:12;14.20;99.90
8178;DHT22;4130;48.740;9.132;2023-09-08T02:10:40;14.20;99.90
8178;DHT22;4130;48.740;9.132;2023-09-08T02:13:07;14.20;99.90
8178;DHT22;4130;48.740;9.132;2023-09-08T02:15:35;14.10;99.90
8178;DHT22;4130;48.740;9.132;2023-09-08T02:18:05;14.10;99.90
8178;DHT22;4130;48.740;9.132;2023-09-08T02:20:32;14.10;99.90
8178;DHT22;4130;48.740;9.132;2023-09-08T02:23:05;14.00;99.90
8178;DHT22;4130;48.740;9.132;2023-09-08T02:25:32;14.00;99.90
8178;DHT22;4130;48.740;9.132;2023-09-08T02:27:59;14.00;99.90
8178;DHT22;4130;48.740;9.132;2023-09-08T02:30:26;14.00;99.90
8178;DHT22;4130;48.740;9.132;2023-09-08T02:32:53;14.00;99.90
8178;DHT22;4130;48.740;9.132;2023-09-08T02:35:23;14.00;99.90
8178;DHT22;4130;48.740;9.132;2023-09-08T02:37:50;13.90;99.90
8178;DHT22;4130;48.740;9.132;2023-09-08T02:40:17;13.90;99.90
8178;DHT22;4130;48.740;9.132;2023-09-08T02:42:44;13.90;99.90
8178;DHT22;4130;48.740;9.132;2023-09-08T02:45:11;13.90;99.90
8178;DHT22;4130;48.740;9.132;2023-09-08T02:47:38;13.90;99.90
8178;DHT22;4130;48.740;9.132;2023-09-08T02:50:05;13.90;99.90
8178;DHT22;4130;48.740;9.132;2023-09-08T02:52:34;13.90;99.90
8178;DHT22;4130;48.740;9.132;2023-09-08T02:55:01;13.90;99.90
8178;DHT22;4130;48.740;9.132;2023-09-08T02:57:28;13.90;99.90
8178;DHT22;4130;48.740;9.132;2023-09-08T02:59:55;13.80;99.90
8178;DHT22;4130;48.740;9.132;2023-09-08T03:02:23;13.80;99.90
8178;DHT22;4130;48.740;9.132;2023-09-08T03:04:50;13.80;99.90
8178;DHT22;4130;48.740;9.132;2023-09-08T03:07:18;13.80;99.90
8178;DHT22;4130;48.740;9.132;2023-09-08T03:09:46;13.80;99.90
8178;DHT22;4130;48.740;9.132;2023-09-08T03:12:13;13.70;99.90
8178;DHT22;4130;48.740;9.132;2023-09-08T03:14:40;13.70;99.90
8178;DHT22;4130;48.740;9.132;2023-09-08T03:17:07;13.70;99.90
8178;DHT22;4130;48.740;9.132;2023-09-08T03:19:34;13.70;99.90
8178;DHT22;4130;48.740;9.132;2023-09-08T03:22:01;13.70;99.90
8178;DHT22;4130;48.740;9.132;2023-09-08T03:24:27;13.70;99.90
8178;DHT22;4130;48.740;9.132;2023-09-08T03:26:56;13.70;99.90
8178;DHT22;4130;48.740;9.132;2023-09-08T03:29:23;13.80;99.90
8178;DHT22;4130;48.740;9.132;2023-09-08T03:31:50;13.80;99.90
8178;DHT22;4130;48.740;9.132;2023-09-08T03:34:17;13.70;99.90
8178;DHT22;4130;48.740;9.132;2023-09-08T03:36:46;13.70;99.90
8178;DHT22;4130;48.740;9.132;2023-09-08T03:39:13;13.70;99.90
8178;DHT22;4130;48.740;9.132;2023-09-08T03:41:40;13.70;99.90
8178;DHT22;4130;48.740;9.132;2023-09-08T03:44:08;13.70;99.90
8178;DHT22;4130;48.740;9.132;2023-09-08T03:46:36;13.60;99.90
8178;DHT22;4130;48.740;9.132;2023-09-08T03:49:03;13.60;99.90
8178;DHT22;4130;48.740;9.132;2023-09-08T03:51:30;13.60;99.90
8178;DHT22;4130;48.740;9.132;2023-09-08T03:53:57;13.60;99.90
8178;DHT22;4130;48.740;9.132;2023-09-08T03:56:23;13.60;99.90
8178;DHT22;4130;48.740;9.132;2023-09-08T03:58:51;13.50;99.90
8178;DHT22;4130;48.740;9.132;2023-09-08T04:01:19;13.50;99.90
8178;DHT22;4130;48.740;9.132;2023-09-08T04:03:46;13.50;99.90
8178;DHT22;4130;48.740;9.132;2023-09-08T04:06:13;13.50;99.90
8178;DHT22;4130;48.740;9.132;2023-09-08T04:08:40;13.50;99.90
8178;DHT22;4130;48.740;9.132;2023-09-08T04:11:07;13.50;99.90
8178;DHT22;4130;48.740;9.132;2023-09-08T04:13:34;13.50;99.90
8178;DHT22;4130;48.740;9.132;2023-09-08T04:16:01;13.50;99.90
8178;DHT22;4130;48.740;9.132;2023-09-08T04:18:29;13.50;99.90
8178;DHT22;4130;48.740;9.132;2023-09-08T04:20:56;13.50;99.90
8178;DHT22;4130;48.740;9.132;2023-09-08T04:23:23;13.50;99.90
8178;DHT22;4130;48.740;9.132;2023-09-08T04:25:50;13.50;99.90
8178;DHT22;4130;48.740;9.132;2023-09-08T04:28:17;13.50;99.90
8178;DHT22;4130;48.740;9.132;2023-09-08T04:30:44;13.40;99.90
8178;DHT22;4130;48.740;9.132;2023-09-08T04:33:11;13.40;99.90
8178;DHT22;4130;48.740;9.132;2023-09-08T04:35:39;13.40;99.90
8178;DHT22;4130;48.740;9.132;2023-09-08T04:38:06;13.40;99.90
8178;DHT22;4130;48.740;9.132;2023-09-08T04:40:33;13.40;99.90
8178;DHT22;4130;48.740;9.132;2023-09-08T04:43:00;13.30;99.90
8178;DHT22;4130;48.740;9.132;2023-09-08T04:45:27;13.30;99.90
8178;DHT22;4130;48.740;9.132;2023-09-08T04:47:54;13.40;99.90
8178;DHT22;4130;48.740;9.132;2023-09-08T04:50:21;13.40;99.90
8178;DHT22;4130;48.740;9.132;2023-09-08T04:52:49;13.40;99.90
8178;DHT22;4130;48.740;9.132;2023-09-08T04:55:17;13.40;99.90
8178;DHT22;4130;48.740;9.132;2023-09-08T04:57:45;13.40;99.90
8178;DHT22;4130;48.740;9.132;2023-09-08T05:00:13;13.40;99.90
8178;DHT22;4130;48.740;9.132;2023-09-08T05:02:40;13.40;99.90
8178;DHT22;4130;48.740;9.132;2023-09-08T05:05:07;13.40;99.90
8178;DHT22;4130;48.740;9.132;2023-09-08T05:07:34;13.40;99.90
8178;DHT22;4130;48.740;9.132;2023-09-08T05:10:03;13.40;99.90
8178;DHT22;4130;48.740;9.132;2023-09-08T05:12:30;13.40;99.90
8178;DHT22;4130;48.740;9.132;2023-09-08T05:14:57;13.40;99.90
8178;DHT22;4130;48.740;9.132;2023-09-08T05:17:31;13.40;99.90
8178;DHT22;4130;48.740;9.132;2023-09-08T05:19:58;13.50;99.90
8178;DHT22;4130;48.740;9.132;2023-09-08T05:22:25;13.50;99.90
8178;DHT22;4130;48.740;9.132;2023-09-08T05:24:52;13.50;99.90
8178;DHT22;4130;48.740;9.132;2023-09-08T05:27:20;13.50;99.90
8178;DHT22;4130;48.740;9.132;2023-09-08T05:29:47;13.50;99.90
8178;DHT22;4130;48.740;9.132;2023-09-08T05:32:14;13.50;99.90
8178;DHT22;4130;48.740;9.132;2023-09-08T05:34:42;13.60;99.90
8178;DHT22;4130;48.740;9.132;2023-09-08T05:37:09;13.50;99.90
8178;DHT22;4130;48.740;9.132;2023-09-08T05:39:36;13.60;99.90
8178;DHT22;4130;48.740;9.132;2023-09-08T05:42:03;13.60;99.90
8178;DHT22;4130;48.740;9.132;2023-09-08T05:44:31;13.60;99.90
8178;DHT22;4130;48.740;9.132;2023-09-08T05:46:58;13.60;99.90
8178;DHT22;4130;48.740;9.132;2023-09-08T05:49:25;13.60;99.90
8178;DHT22;4130;48.740;9.132;2023-09-08T05:51:52;13.60;99.90
8178;DHT22;4130;48.740;9.132;2023-09-08T05:54:19;13.70;99.90
8178;DHT22;4130;48.740;9.132;2023-09-08T05:56:46;13.70;99.90
8178;DHT22;4130;48.740;9.132;2023-09-08T05:59:13;13.70;99.90
8178;DHT22;4130;48.740;9.132;2023-09-08T06:01:41;13.80;99.90
8178;DHT22;4130;48.740;9.132;2023-09-08T06:04:09;13.80;99.90
8178;DHT22;4130;48.740;9.132;2023-09-08T06:06:36;13.80;99.90
8178;DHT22;4130;48.740;9.132;2023-09-08T06:09:03;13.80;99.90
8178;DHT22;4130;48.740;9.132;2023-09-08T06:11:31;13.90;99.90
8178;DHT22;4130;48.740;9.132;2023-09-08T06:13:58;13.90;99.90
8178;DHT22;4130;48.740;9.132;2023-09-08T06:16:25;13.90;99.90
8178;DHT22;4130;48.740;9.132;2023-09-08T06:18:53;14.00;99.90
8178;DHT22;4130;48.740;9.132;2023-09-08T06:21:20;14.00;99.90
8178;DHT22;4130;48.740;9.132;2023-09-08T06:23:47;14.10;99.90
8178;DHT22;4130;48.740;9.132;2023-09-08T06:26:14;14.20;99.90
8178;DHT22;4130;48.740;9.132;2023-09-08T06:28:41;14.20;99.90
8178;DHT22;4130;48.740;9.132;2023-09-08T06:31:09;14.30;99.90
8178;DHT22;4130;48.740;9.132;2023-09-08T06:33:36;14.30;99.90
8178;DHT22;4130;48.740;9.132;2023-09-08T06:36:05;14.40;99.90
8178;DHT22;4130;48.740;9.132;2023-09-08T06:38:33;14.40;99.90
8178;DHT22;4130;48.740;9.132;2023-09-08T06:41:00;14.40;99.90
8178;DHT22;4130;48.740;9.132;2023-09-08T06:43:27;14.50;99.90
8178;DHT22;4130;48.740;9.132;2023-09-08T06:45:54;14.50;99.90
8178;DHT22;4130;48.740;9.132;2023-09-08T06:48:21;14.60;99.90
8178;DHT22;4130;48.740;9.132;2023-09-08T06:50:48;14.70;99.90
8178;DHT22;4130;48.740;9.132;2023-09-08T06:53:16;14.80;99.90
8178;DHT22;4130;48.740;9.132;2023-09-08T06:55:43;14.80;99.90
8178;DHT22;4130;48.740;9.132;2023-09-08T06:58:10;14.90;99.90
8178;DHT22;4130;48.740;9.132;2023-09-08T07:00:37;15.00;99.90
8178;DHT22;4130;48.740;9.132;2023-09-08T07:03:05;15.10;99.90
8178;DHT22;4130;48.740;9.132;2023-09-08T07:05:31;15.20;99.90
8178;DHT22;4130;48.740;9.132;2023-09-08T07:07:58;15.40;99.90
8178;DHT22;4130;48.740;9.132;2023-09-08T07:10:27;15.50;99.90
8178;DHT22;4130;48.740;9.132;2023-09-08T07:12:54;15.60;99.90
8178;DHT22;4130;48.740;9.132;2023-09-08T07:15:21;15.70;99.90
8178;DHT22;4130;48.740;9.132;2023-09-08T07:17:48;15.80;99.90
8178;DHT22;4130;48.740;9.132;2023-09-08T07:20:15;16.00;99.90
8178;DHT22;4130;48.740;9.132;2023-09-08T07:22:43;16.10;99.90
8178;DHT22;4130;48.740;9.132;2023-09-08T07:25:10;16.20;99.90
8178;DHT22;4130;48.740;9.132;2023-09-08T07:27:38;16.40;99.90
8178;DHT22;4130;48.740;9.132;2023-09-08T07:30:06;16.60;99.90
8178;DHT22;4130;48.740;9.132;2023-09-08T07:32:33;16.70;99.90
8178;DHT22;4130;48.740;9.132;2023-09-08T07:35:00;16.90;99.90
8178;DHT22;4130;48.740;9.132;2023-09-08T07:37:27;17.10;99.90
8178;DHT22;4130;48.740;9.132;2023-09-08T07:39:54;17.30;99.90
8178;DHT22;4130;48.740;9.132;2023-09-08T07:42:21;17.40;99.90
8178;DHT22;4130;48.740;9.132;2023-09-08T07:44:50;17.50;99.90
8178;DHT22;4130;48.740;9.132;2023-09-08T07:47:17;17.70;99.90
8178;DHT22;4130;48.740;9.132;2023-09-08T07:49:45;17.90;99.90
8178;DHT22;4130;48.740;9.132;2023-09-08T07:52:13;18.10;99.90
8178;DHT22;4130;48.740;9.132;2023-09-08T07:54:40;18.30;99.90
8178;DHT22;4130;48.740;9.132;2023-09-08T07:57:07;18.50;99.90
8178;DHT22;4130;48.740;9.132;2023-09-08T07:59:34;18.70;99.90
8178;DHT22;4130;48.740;9.132;2023-09-08T08:02:02;18.80;99.90
8178;DHT22;4130;48.740;9.132;2023-09-08T08:04:29;19.00;99.90
8178;DHT22;4130;48.740;9.132;2023-09-08T08:06:56;19.10;99.90
8178;DHT22;4130;48.740;9.132;2023-09-08T08:09:23;19.30;99.90
8178;DHT22;4130;48.740;9.132;2023-09-08T08:11:50;19.50;99.90
8178;DHT22;4130;48.740;9.132;2023-09-08T08:14:17;19.70;99.90
8178;DHT22;4130;48.740;9.132;2023-09-08T08:16:44;19.70;99.90
8178;DHT22;4130;48.740;9.132;2023-09-08T08:19:12;19.90;99.90
8178;DHT22;4130;48.740;9.132;2023-09-08T08:21:39;20.00;99.90
8178;DHT22;4130;48.740;9.132;2023-09-08T08:24:08;20.10;99.90
8178;DHT22;4130;48.740;9.132;2023-09-08T08:26:35;20.30;99.90
8178;DHT22;4130;48.740;9.132;2023-09-08T08:29:02;20.30;99.90
8178;DHT22;4130;48.740;9.132;2023-09-08T08:31:30;20.40;99.90
8178;DHT22;4130;48.740;9.132;2023-09-08T08:33:58;20.60;99.90
8178;DHT22;4130;48.740;9.132;2023-09-08T08:36:27;20.70;99.90
8178;DHT22;4130;48.740;9.132;2023-09-08T08:38:54;20.80;99.90
8178;DHT22;4130;48.740;9.132;2023-09-08T08:41:21;21.00;99.90
8178;DHT22;4130;48.740;9.132;2023-09-08T08:43:48;21.10;99.90
8178;DHT22;4130;48.740;9.132;2023-09-08T08:46:18;21.20;99.90
8178;DHT22;4130;48.740;9.132;2023-09-08T08:48:47;21.40;99.90
8178;DHT22;4130;48.740;9.132;2023-09-08T08:51:17;21.60;99.90
8178;DHT22;4130;48.740;9.132;2023-09-08T08:53:46;21.70;99.90
8178;DHT22;4130;48.740;9.132;2023-09-08T08:56:13;21.80;99.90
8178;DHT22;4130;48.740;9.132;2023-09-08T08:58:40;22.00;99.90
8178;DHT22;4130;48.740;9.132;2023-09-08T09:01:11;22.20;99.90
8178;DHT22;4130;48.740;9.132;2023-09-08T09:03:40;22.50;99.90
8178;DHT22;4130;48.740;9.132;2023-09-08T09:06:09;23.00;99.90
8178;DHT22;4130;48.740;9.132;2023-09-08T09:08:37;23.50;99.90
8178;DHT22;4130;48.740;9.132;2023-09-08T09:11:06;23.90;99.90
8178;DHT22;4130;48.740;9.132;2023-09-08T09:13:33;24.50;99.90
8178;DHT22;4130;48.740;9.132;2023-09-08T09:16:01;25.10;99.90
8178;DHT22;4130;48.740;9.132;2023-09-08T09:18:29;25.70;99.90
8178;DHT22;4130;48.740;9.132;2023-09-08T09:20:59;26.30;99.90
8178;DHT22;4130;48.740;9.132;2023-09-08T09:23:30;26.70;99.90
8178;DHT22;4130;48.740;9.132;2023-09-08T09:25:57;27.10;99.90
8178;DHT22;4130;48.740;9.132;2023-09-08T09:28:28;27.30;99.90
8178;DHT22;4130;48.740;9.132;2023-09-08T09:30:56;27.40;99.90
8178;DHT22;4130;48.740;9.132;2023-09-08T09:33:23;27.70;99.90
8178;DHT22;4130;48.740;9.132;2023-09-08T09:35:52;27.70;99.90
8178;DHT22;4130;48.740;9.132;2023-09-08T09:38:19;27.60;99.90
8178;DHT22;4130;48.740;9.132;2023-09-08T09:40:48;27.40;99.90
8178;DHT22;4130;48.740;9.132;2023-09-08T09:43:15;27.40;99.90
8178;DHT22;4130;48.740;9.132;2023-09-08T09:45:44;27.60;99.90
8178;DHT22;4130;48.740;9.132;2023-09-08T09:48:11;27.70;99.90
8178;DHT22;4130;48.740;9.132;2023-09-08T09:50:40;27.80;99.90
8178;DHT22;4130;48.740;9.132;2023-09-08T09:53:11;28.00;99.30
8178;DHT22;4130;48.740;9.132;2023-09-08T09:55:39;28.00;99.90
8178;DHT22;4130;48.740;9.132;2023-09-08T09:58:07;27.90;99.50
8178;DHT22;4130;48.740;9.132;2023-09-08T10:00:36;28.30;99.80
8178;DHT22;4130;48.740;9.132;2023-09-08T10:03:05;28.70;99.90
8178;DHT22;4130;48.740;9.132;2023-09-08T10:05:33;28.90;99.00
8178;DHT22;4130;48.740;9.132;2023-09-08T10:08:00;29.20;98.10
8178;DHT22;4130;48.740;9.132;2023-09-08T10:10:28;28.80;97.10
8178;DHT22;4130;48.740;9.132;2023-09-08T10:12:59;28.60;98.90
8178;DHT22;4130;48.740;9.132;2023-09-08T10:15:28;28.70;97.70
8178;DHT22;4130;48.740;9.132;2023-09-08T10:17:57;28.80;98.30
8178;DHT22;4130;48.740;9.132;2023-09-08T10:20:27;28.80;97.70
8178;DHT22;4130;48.740;9.132;2023-09-08T10:23:06;29.10;97.50
8178;DHT22;4130;48.740;9.132;2023-09-08T10:25:37;29.00;96.30
8178;DHT22;4130;48.740;9.132;2023-09-08T10:28:06;28.70;96.40
8178;DHT22;4130;48.740;9.132;2023-09-08T10:30:34;28.60;96.70
8178;DHT22;4130;48.740;9.132;2023-09-08T10:33:01;28.80;97.00
8178;DHT22;4130;48.740;9.132;2023-09-08T10:35:30;28.90;96.80
8178;DHT22;4130;48.740;9.132;2023-09-08T10:38:21;29.20;96.70
8178;DHT22;4130;48.740;9.132;2023-09-08T10:40:49;29.40;97.10
8178;DHT22;4130;48.740;9.132;2023-09-08T10:43:17;29.60;96.60
8178;DHT22;4130;48.740;9.132;2023-09-08T10:45:45;29.80;95.60
8178;DHT22;4130;48.740;9.132;2023-09-08T10:48:12;29.50;95.10
8178;DHT22;4130;48.740;9.132;2023-09-08T10:50:42;29.30;95.30
8178;DHT22;4130;48.740;9.132;2023-09-08T10:53:14;29.10;95.50
8178;DHT22;4130;48.740;9.132;2023-09-08T10:55:43;29.10;95.30
8178;DHT22;4130;48.740;9.132;2023-09-08T10:58:20;29.20;95.60
8178;DHT22;4130;48.740;9.132;2023-09-08T11:00:50;29.40;94.80
8178;DHT22;4130;48.740;9.132;2023-09-08T11:03:26;29.50;94.70
8178;DHT22;4130;48.740;9.132;2023-09-08T11:05:56;29.60;94.90
8178;DHT22;4130;48.740;9.132;2023-09-08T11:08:24;29.80;95.10
8178;DHT22;4130;48.740;9.132;2023-09-08T11:10:51;29.90;94.80
8178;DHT22;4130;48.740;9.132;2023-09-08T11:13:18;30.00;93.80
8178;DHT22;4130;48.740;9.132;2023-09-08T11:15:45;30.00;95.00
8178;DHT22;4130;48.740;9.132;2023-09-08T11:18:12;29.90;94.60
8178;DHT22;4130;48.740;9.132;2023-09-08T11:20:39;29.80;94.40
8178;DHT22;4130;48.740;9.132;2023-09-08T11:23:07;30.10;94.20
8178;DHT22;4130;48.740;9.132;2023-09-08T11:25:35;30.20;94.00
8178;DHT22;4130;48.740;9.132;2023-09-08T11:28:02;30.40;93.70
8178;DHT22;4130;48.740;9.132;2023-09-08T11:30:29;30.40;93.30
8178;DHT22;4130;48.740;9.132;2023-09-08T11:32:56;30.40;93.30
8178;DHT22;4130;48.740;9.132;2023-09-08T11:35:26;30.30;93.30
8178;DHT22;4130;48.740;9.132;2023-09-08T11:37:59;30.50;93.60
8178;DHT22;4130;48.740;9.132;2023-09-08T11:40:30;30.60;94.20
8178;DHT22;4130;48.740;9.132;2023-09-08T11:42:58;30.70;92.90
8178;DHT22;4130;48.740;9.132;2023-09-08T11:45:25;30.70;93.00
8178;DHT22;4130;48.740;9.132;2023-09-08T11:47:53;30.70;92.40
8178;DHT22;4130;48.740;9.132;2023-09-08T11:50:22;30.70;92.20
8178;DHT22;4130;48.740;9.132;2023-09-08T11:52:50;30.40;91.90
8178;DHT22;4130;48.740;9.132;2023-09-08T11:55:19;30.40;93.30
8178;DHT22;4130;48.740;9.132;2023-09-08T11:57:49;30.30;91.90
8178;DHT22;4130;48.740;9.132;2023-09-08T12:00:20;30.30;92.50
8178;DHT22;4130;48.740;9.132;2023-09-08T12:02:49;30.20;92.70
8178;DHT22;4130;48.740;9.132;2023-09-08T12:05:21;30.40;92.90
8178;DHT22;4130;48.740;9.132;2023-09-08T12:07:48;30.60;92.50
8178;DHT22;4130;48.740;9.132;2023-09-08T12:10:16;30.70;92.20
8178;DHT22;4130;48.740;9.132;2023-09-08T12:12:44;30.90;92.50
8178;DHT22;4130;48.740;9.132;2023-09-08T12:15:29;31.00;91.90
8178;DHT22;4130;48.740;9.132;2023-09-08T12:17:57;30.90;92.10
8178;DHT22;4130;48.740;9.132;2023-09-08T12:20:24;30.80;91.40
8178;DHT22;4130;48.740;9.132;2023-09-08T12:22:52;30.60;91.70
8178;DHT22;4130;48.740;9.132;2023-09-08T12:25:19;30.60;91.60
8178;DHT22;4130;48.740;9.132;2023-09-08T12:27:50;30.60;91.90
8178;DHT22;4130;48.740;9.132;2023-09-08T12:30:19;30.60;91.60
8178;DHT22;4130;48.740;9.132;2023-09-08T12:32:48;30.60;91.70
8178;DHT22;4130;48.740;9.132;2023-09-08T12:35:20;30.60;90.60
8178;DHT22;4130;48.740;9.132;2023-09-08T12:37:53;30.60;91.40
8178;DHT22;4130;48.740;9.132;2023-09-08T12:40:20;30.70;91.70
8178;DHT22;4130;48.740;9.132;2023-09-08T12:42:48;30.70;91.20
8178;DHT22;4130;48.740;9.132;2023-09-08T12:45:15;30.50;91.20
8178;DHT22;4130;48.740;9.132;2023-09-08T12:47:44;30.70;91.30
8178;DHT22;4130;48.740;9.132;2023-09-08T12:50:11;30.70;91.50
8178;DHT22;4130;48.740;9.132;2023-09-08T12:52:38;30.90;91.20
8178;DHT22;4130;48.740;9.132;2023-09-08T12:55:06;31.10;90.70
8178;DHT22;4130;48.740;9.132;2023-09-08T12:57:35;31.10;91.30
8178;DHT22;4130;48.740;9.132;2023-09-08T13:00:03;31.20;90.20
8178;DHT22;4130;48.740;9.132;2023-09-08T13:02:30;31.30;90.30
8178;DHT22;4130;48.740;9.132;2023-09-08T13:04:58;31.20;90.20
8178;DHT22;4130;48.740;9.132;2023-09-08T13:07:26;31.30;90.20
8178;DHT22;4130;48.740;9.132;2023-09-08T13:09:53;31.30;89.80
8178;DHT22;4130;48.740;9.132;2023-09-08T13:12:20;31.20;90.20
8178;DHT22;4130;48.740;9.132;2023-09-08T13:14:47;31.10;89.90
8178;DHT22;4130;48.740;9.132;2023-09-08T13:17:15;31.00;89.60
8178;DHT22;4130;48.740;9.132;2023-09-08T13:19:42;31.20;90.10
8178;DHT22;4130;48.740;9.132;2023-09-08T13:22:11;31.20;89.40
8178;DHT22;4130;48.740;9.132;2023-09-08T13:24:38;31.20;89.10
8178;DHT22;4130;48.740;9.132;2023-09-08T13:27:05;31.00;89.20
8178;DHT22;4130;48.740;9.132;2023-09-08T13:29:32;31.10;89.80
8178;DHT22;4130;48.740;9.132;2023-09-08T13:31:59;31.10;89.80
8178;DHT22;4130;48.740;9.132;2023-09-08T13:34:26;30.80;89.50
8178;DHT22;4130;48.740;9.132;2023-09-08T13:36:53;30.60;90.00
8178;DHT22;4130;48.740;9.132;2023-09-08T13:39:21;30.40;90.10
8178;DHT22;4130;48.740;9.132;2023-09-08T13:41:50;30.10;90.80
8178;DHT22;4130;48.740;9.132;2023-09-08T13:44:18;29.90;90.90
8178;DHT22;4130;48.740;9.132;2023-09-08T13:46:46;29.60;90.60
8178;DHT22;4130;48.740;9.132;2023-09-08T13:49:13;29.40;90.40
8178;DHT22;4130;48.740;9.132;2023-09-08T13:51:40;29.20;90.80
8178;DHT22;4130;48.740;9.132;2023-09-08T13:54:07;29.10;90.60
8178;DHT22;4130;48.740;9.132;2023-09-08T13:56:38;28.90;91.20
8178;DHT22;4130;48.740;9.132;2023-09-08T13:59:05;28.80;91.20
8178;DHT22;4130;48.740;9.132;2023-09-08T14:01:33;28.80;90.80
8178;DHT22;4130;48.740;9.132;2023-09-08T14:04:00;28.70;90.60
8178;DHT22;4130;48.740;9.132;2023-09-08T14:06:27;28.70;91.00
8178;DHT22;4130;48.740;9.132;2023-09-08T14:08:54;28.70;90.90
8178;DHT22;4130;48.740;9.132;2023-09-08T14:11:22;28.50;91.10
8178;DHT22;4130;48.740;9.132;2023-09-08T14:13:50;28.50;91.00
8178;DHT22;4130;48.740;9.132;2023-09-08T14:16:18;28.50;91.40
8178;DHT22;4130;48.740;9.132;2023-09-08T14:18:45;28.40;91.30
8178;DHT22;4130;48.740;9.132;2023-09-08T14:21:12;28.40;91.00
8178;DHT22;4130;48.740;9.132;2023-09-08T14:23:39;28.40;90.70
8178;DHT22;4130;48.740;9.132;2023-09-08T14:26:07;28.40;91.00
8178;DHT22;4130;48.740;9.132;2023-09-08T14:28:34;28.30;90.90
8178;DHT22;4130;48.740;9.132;2023-09-08T14:31:03;28.30;90.40
8178;DHT22;4130;48.740;9.132;2023-09-08T14:33:30;28.20;90.70
8178;DHT22;4130;48.740;9.132;2023-09-08T14:35:57;28.20;90.90
8178;DHT22;4130;48.740;9.132;2023-09-08T14:38:24;28.20;90.90
8178;DHT22;4130;48.740;9.132;2023-09-08T14:40:55;28.20;91.00
8178;DHT22;4130;48.740;9.132;2023-09-08T14:43:22;28.20;91.10
8178;DHT22;4130;48.740;9.132;2023-09-08T14:45:49;28.10;90.60
8178;DHT22;4130;48.740;9.132;2023-09-08T14:48:18;28.10;90.60
8178;DHT22;4130;48.740;9.132;2023-09-08T14:50:45;28.00;91.00
8178;DHT22;4130;48.740;9.132;2023-09-08T14:53:12;27.90;91.00
8178;DHT22;4130;48.740;9.132;2023-09-08T14:55:39;27.90;91.20
8178;DHT22;4130;48.740;9.132;2023-09-08T14:58:06;27.90;91.00
8178;DHT22;4130;48.740;9.132;2023-09-08T15:00:33;28.00;90.10
8178;DHT22;4130;48.740;9.132;2023-09-08T15:03:01;27.90;91.30
8178;DHT22;4130;48.740;9.132;2023-09-08T15:05:31;27.80;90.70
8178;DHT22;4130;48.740;9.132;2023-09-08T15:07:59;27.70;90.70
8178;DHT22;4130;48.740;9.132;2023-09-08T15:10:26;27.70;90.50
8178;DHT22;4130;48.740;9.132;2023-09-08T15:12:52;27.60;90.90
8178;DHT22;4130;48.740;9.132;2023-09-08T15:15:19;27.70;90.90
8178;DHT22;4130;48.740;9.132;2023-09-08T15:17:50;27.70;91.40
8178;DHT22;4130;48.740;9.132;2023-09-08T15:20:17;27.60;91.00
8178;DHT22;4130;48.740;9.132;2023-09-08T15:22:45;27.60;91.30
8178;DHT22;4130;48.740;9.132;2023-09-08T15:25:12;27.60;90.90
8178;DHT22;4130;48.740;9.132;2023-09-08T15:27:39;27.50;90.70
8178;DHT22;4130;48.740;9.132;2023-09-08T15:30:07;27.40;90.90
8178;DHT22;4130;48.740;9.132;2023-09-08T15:32:34;27.50;90.40
8178;DHT22;4130;48.740;9.132;2023-09-08T15:35:01;27.50;90.80
8178;DHT22;4130;48.740;9.132;2023-09-08T15:37:29;27.40;91.30
8178;DHT22;4130;48.740;9.132;2023-09-08T15:39:57;27.30;91.00
8178;DHT22;4130;48.740;9.132;2023-09-08T15:42:24;27.30;90.90
8178;DHT22;4130;48.740;9.132;2023-09-08T15:44:51;27.30;91.00
8178;DHT22;4130;48.740;9.132;2023-09-08T15:47:18;27.20;90.80
8178;DHT22;4130;48.740;9.132;2023-09-08T15:49:45;27.30;91.20
8178;DHT22;4130;48.740;9.132;2023-09-08T15:52:13;27.20;91.00
8178;DHT22;4130;48.740;9.132;2023-09-08T15:54:40;27.30;90.80
8178;DHT22;4130;48.740;9.132;2023-09-08T15:57:09;27.20;90.60
8178;DHT22;4130;48.740;9.132;2023-09-08T15:59:36;27.20;90.50
8178;DHT22;4130;48.740;9.132;2023-09-08T16:02:04;27.30;90.40
8178;DHT22;4130;48.740;9.132;2023-09-08T16:04:30;27.40;91.10
8178;DHT22;4130;48.740;9.132;2023-09-08T16:06:57;27.30;91.00
8178;DHT22;4130;48.740;9.132;2023-09-08T16:09:24;27.20;90.70